createdAt,value
2017-06-24T00:00:22.831Z,17.59
2017-06-24T00:00:51.320Z,17.57
2017-06-24T00:01:19.928Z,17.57
2017-06-24T00:01:48.522Z,17.65
2017-06-24T00:02:16.940Z,17.63
2017-06-24T00:02:45.565Z,17.63
2017-06-24T00:03:14.176Z,17.65
2017-06-24T00:03:42.766Z,17.71
2017-06-24T00:04:11.279Z,17.57
2017-06-24T00:04:39.861Z,17.57
2017-06-24T00:05:08.396Z,17.57
2017-06-24T00:05:37.008Z,17.66
2017-06-24T00:06:05.492Z,17.54
2017-06-24T00:06:34.110Z,17.54
2017-06-24T00:07:02.612Z,17.63
2017-06-24T00:07:31.229Z,17.56
2017-06-24T00:07:59.829Z,17.57
2017-06-24T00:08:28.258Z,17.56
2017-06-24T00:08:56.870Z,17.56
2017-06-24T00:09:25.283Z,17.6
2017-06-24T00:09:53.905Z,17.6
2017-06-24T00:10:22.508Z,17.6
2017-06-24T00:10:51.126Z,17.63
2017-06-24T00:11:19.711Z,17.56
2017-06-24T00:11:48.410Z,17.57
2017-06-24T00:12:16.850Z,17.71
2017-06-24T00:12:45.483Z,17.59
2017-06-24T00:13:14.102Z,17.54
2017-06-24T00:13:42.634Z,17.59
2017-06-24T00:14:11.248Z,17.59
2017-06-24T00:14:39.875Z,17.6
2017-06-24T00:15:08.461Z,17.6
2017-06-24T00:15:36.973Z,17.63
2017-06-24T00:16:05.379Z,17.65
2017-06-24T00:16:34.019Z,17.73
2017-06-24T00:17:03.999Z,17.65
2017-06-24T00:17:35.196Z,17.72
2017-06-24T00:18:03.792Z,17.72
2017-06-24T00:18:32.452Z,17.69
2017-06-24T00:19:01.234Z,17.73
2017-06-24T00:19:29.831Z,17.6
2017-06-24T00:19:58.338Z,17.63
2017-06-24T00:20:26.968Z,17.71
2017-06-24T00:20:55.597Z,17.73
2017-06-24T00:21:24.173Z,17.69
2017-06-24T00:21:52.674Z,17.6
2017-06-24T00:22:21.278Z,17.56
2017-06-24T00:22:49.893Z,17.56
2017-06-24T00:23:18.416Z,17.65
2017-06-24T00:23:47.001Z,17.63
2017-06-24T00:24:15.543Z,17.57
2017-06-24T00:24:44.060Z,17.66
2017-06-24T00:25:12.665Z,17.65
2017-06-24T00:25:41.426Z,17.68
2017-06-24T00:26:10.322Z,17.57
2017-06-24T00:26:38.965Z,17.59
2017-06-24T00:27:07.547Z,17.63
2017-06-24T00:27:36.059Z,17.6
2017-06-24T00:28:04.593Z,17.59
2017-06-24T00:28:33.110Z,17.53
2017-06-24T00:29:01.520Z,17.59
2017-06-24T00:29:30.135Z,17.6
2017-06-24T00:29:58.709Z,17.59
2017-06-24T00:30:27.394Z,17.57
2017-06-24T00:30:55.939Z,17.65
2017-06-24T00:31:24.523Z,17.63
2017-06-24T00:31:53.158Z,17.59
2017-06-24T00:32:21.771Z,17.59
2017-06-24T00:32:50.295Z,17.59
2017-06-24T00:33:18.882Z,17.66
2017-06-24T00:33:47.398Z,17.57
2017-06-24T00:34:15.794Z,17.57
2017-06-24T00:34:44.398Z,17.63
2017-06-24T00:35:13.017Z,17.54
2017-06-24T00:35:41.630Z,17.56
2017-06-24T00:36:10.226Z,17.54
2017-06-24T00:36:38.759Z,17.57
2017-06-24T00:37:07.273Z,17.63
2017-06-24T00:37:35.854Z,17.63
2017-06-24T00:38:04.463Z,17.59
2017-06-24T00:38:33.056Z,17.63
2017-06-24T00:39:01.658Z,17.71
2017-06-24T00:39:30.166Z,17.71
2017-06-24T00:39:58.695Z,17.69
2017-06-24T00:40:27.289Z,17.75
2017-06-24T00:40:55.895Z,17.73
2017-06-24T00:41:24.324Z,17.73
2017-06-24T00:41:52.925Z,17.76
2017-06-24T00:42:21.507Z,17.76
2017-06-24T00:42:50.006Z,17.73
2017-06-24T00:43:18.513Z,17.76
2017-06-24T00:43:47.022Z,17.76
2017-06-24T00:44:15.622Z,17.79
2017-06-24T00:44:44.215Z,17.75
2017-06-24T00:45:12.761Z,17.75
2017-06-24T00:45:41.186Z,17.73
2017-06-24T00:46:09.726Z,17.72
2017-06-24T00:46:38.321Z,17.75
2017-06-24T00:47:06.936Z,17.66
2017-06-24T00:47:35.534Z,17.75
2017-06-24T00:48:04.153Z,17.76
2017-06-24T00:48:32.670Z,17.75
2017-06-24T00:49:01.190Z,17.68
2017-06-24T00:49:29.799Z,17.73
2017-06-24T00:49:58.468Z,17.8
2017-06-24T00:50:27.104Z,17.75
2017-06-24T00:50:55.674Z,17.72
2017-06-24T00:51:24.283Z,17.72
2017-06-24T00:51:52.892Z,17.63
2017-06-24T00:52:21.503Z,17.63
2017-06-24T00:52:50.008Z,17.71
2017-06-24T00:53:18.602Z,17.75
2017-06-24T00:53:47.111Z,17.73
2017-06-24T00:54:15.623Z,17.72
2017-06-24T00:54:44.234Z,17.68
2017-06-24T00:55:12.852Z,17.72
2017-06-24T00:55:41.459Z,17.68
2017-06-24T00:56:09.978Z,17.73
2017-06-24T00:56:38.521Z,17.73
2017-06-24T00:57:07.134Z,17.71
2017-06-24T00:57:35.749Z,17.75
2017-06-24T00:58:04.347Z,17.69
2017-06-24T00:58:32.951Z,17.71
2017-06-24T00:59:01.467Z,17.71
2017-06-24T00:59:30.059Z,17.79
2017-06-24T00:59:58.681Z,17.72
2017-06-24T01:00:27.190Z,17.75
2017-06-24T01:00:55.797Z,17.72
2017-06-24T01:01:24.325Z,17.71
2017-06-24T01:01:52.827Z,17.65
2017-06-24T01:02:21.457Z,17.63
2017-06-24T01:02:49.889Z,17.63
2017-06-24T01:03:18.504Z,17.66
2017-06-24T01:03:46.943Z,17.63
2017-06-24T01:04:15.467Z,17.56
2017-06-24T01:04:44.080Z,17.54
2017-06-24T01:05:12.667Z,17.56
2017-06-24T01:05:41.256Z,17.56
2017-06-24T01:06:09.871Z,17.53
2017-06-24T01:06:38.490Z,17.63
2017-06-24T01:07:07.133Z,17.52
2017-06-24T01:07:35.640Z,17.6
2017-06-24T01:08:04.079Z,17.54
2017-06-24T01:08:32.714Z,17.56
2017-06-24T01:09:01.233Z,17.6
2017-06-24T01:09:29.844Z,17.59
2017-06-24T01:09:58.454Z,17.56
2017-06-24T01:10:27.065Z,17.42
2017-06-24T01:10:55.671Z,17.54
2017-06-24T01:11:24.250Z,17.41
2017-06-24T01:11:52.772Z,17.53
2017-06-24T01:12:21.381Z,17.38
2017-06-24T01:12:49.990Z,17.44
2017-06-24T01:13:18.571Z,17.46
2017-06-24T01:13:47.070Z,17.49
2017-06-24T01:14:15.597Z,17.5
2017-06-24T01:14:44.212Z,17.49
2017-06-24T01:15:12.849Z,17.44
2017-06-24T01:15:41.354Z,17.47
2017-06-24T01:16:09.962Z,17.49
2017-06-24T01:16:38.482Z,17.52
2017-06-24T01:17:07.002Z,17.44
2017-06-24T01:17:35.624Z,17.44
2017-06-24T01:18:04.235Z,17.47
2017-06-24T01:18:32.846Z,17.38
2017-06-24T01:19:01.481Z,17.38
2017-06-24T01:19:30.079Z,17.37
2017-06-24T01:19:58.592Z,17.35
2017-06-24T01:20:27.245Z,17.34
2017-06-24T01:20:55.839Z,17.41
2017-06-24T01:21:24.336Z,17.35
2017-06-24T01:21:52.842Z,17.39
2017-06-24T01:22:21.329Z,17.41
2017-06-24T01:22:49.941Z,17.38
2017-06-24T01:23:18.557Z,17.49
2017-06-24T01:23:47.068Z,17.39
2017-06-24T01:24:15.687Z,17.49
2017-06-24T01:24:44.281Z,17.46
2017-06-24T01:25:12.880Z,17.46
2017-06-24T01:25:41.289Z,17.49
2017-06-24T01:26:09.915Z,17.49
2017-06-24T01:26:38.526Z,17.47
2017-06-24T01:27:07.036Z,17.44
2017-06-24T01:27:35.670Z,17.47
2017-06-24T01:28:04.266Z,17.41
2017-06-24T01:28:32.790Z,17.46
2017-06-24T01:29:01.326Z,17.44
2017-06-24T01:29:29.943Z,17.46
2017-06-24T01:29:58.442Z,17.42
2017-06-24T01:30:27.082Z,17.44
2017-06-24T01:30:55.674Z,17.44
2017-06-24T01:31:24.248Z,17.44
2017-06-24T01:31:52.912Z,17.49
2017-06-24T01:32:21.423Z,17.41
2017-06-24T01:32:49.922Z,17.47
2017-06-24T01:33:18.448Z,17.37
2017-06-24T01:33:47.072Z,17.35
2017-06-24T01:34:15.672Z,17.39
2017-06-24T01:34:44.296Z,17.35
2017-06-24T01:35:12.794Z,17.32
2017-06-24T01:35:41.400Z,17.35
2017-06-24T01:36:10.032Z,17.37
2017-06-24T01:36:38.549Z,17.31
2017-06-24T01:37:07.159Z,17.22
2017-06-24T01:37:35.752Z,17.23
2017-06-24T01:38:04.333Z,17.19
2017-06-24T01:38:32.942Z,17.2
2017-06-24T01:39:01.359Z,17.2
2017-06-24T01:39:29.937Z,17.22
2017-06-24T01:39:58.533Z,17.27
2017-06-24T01:40:27.062Z,17.31
2017-06-24T01:40:55.484Z,17.27
2017-06-24T01:41:24.097Z,17.24
2017-06-24T01:41:52.687Z,17.24
2017-06-24T01:42:21.216Z,17.27
2017-06-24T01:42:49.755Z,17.32
2017-06-24T01:43:18.390Z,17.3
2017-06-24T01:43:47.006Z,17.23
2017-06-24T01:44:15.606Z,17.34
2017-06-24T01:44:44.197Z,17.31
2017-06-24T01:45:12.798Z,17.32
2017-06-24T01:45:41.413Z,17.32
2017-06-24T01:46:09.808Z,17.39
2017-06-24T01:46:38.409Z,17.32
2017-06-24T01:47:07.013Z,17.31
2017-06-24T01:47:35.596Z,17.34
2017-06-24T01:48:04.202Z,17.32
2017-06-24T01:48:32.797Z,17.34
2017-06-24T01:49:01.315Z,17.31
2017-06-24T01:49:29.931Z,17.34
2017-06-24T01:49:58.551Z,17.37
2017-06-24T01:50:27.173Z,17.28
2017-06-24T01:50:55.782Z,17.3
2017-06-24T01:51:24.285Z,17.31
2017-06-24T01:51:52.887Z,17.28
2017-06-24T01:52:21.512Z,17.27
2017-06-24T01:52:50.107Z,17.27
2017-06-24T01:53:18.712Z,17.27
2017-06-24T01:53:47.229Z,17.22
2017-06-24T01:54:15.768Z,17.2
2017-06-24T01:54:44.343Z,17.23
2017-06-24T01:55:12.847Z,17.2
2017-06-24T01:55:41.436Z,17.16
2017-06-24T01:56:10.065Z,17.2
2017-06-24T01:56:38.610Z,17.14
2017-06-24T01:57:07.131Z,17.12
2017-06-24T01:57:35.764Z,17.14
2017-06-24T01:58:04.260Z,17.2
2017-06-24T01:58:32.879Z,17.01
2017-06-24T01:59:01.479Z,17.07
2017-06-24T01:59:29.978Z,16.98
2017-06-24T01:59:58.498Z,16.99
2017-06-24T02:00:27.115Z,16.98
2017-06-24T02:00:55.736Z,16.98
2017-06-24T02:01:24.341Z,16.98
2017-06-24T02:01:52.973Z,17.02
2017-06-24T02:02:21.594Z,16.87
2017-06-24T02:02:50.214Z,16.89
2017-06-24T02:03:18.799Z,16.94
2017-06-24T02:03:47.361Z,16.89
2017-06-24T02:04:15.967Z,16.95
2017-06-24T02:04:44.590Z,16.89
2017-06-24T02:05:13.187Z,16.89
2017-06-24T02:05:41.627Z,16.84
2017-06-24T02:06:10.227Z,16.84
2017-06-24T02:06:38.826Z,16.86
2017-06-24T02:07:07.428Z,16.87
2017-06-24T02:07:36.062Z,16.89
2017-06-24T02:08:04.675Z,16.83
2017-06-24T02:08:33.287Z,16.92
2017-06-24T02:09:01.868Z,16.97
2017-06-24T02:09:30.454Z,16.89
2017-06-24T02:09:58.942Z,16.89
2017-06-24T02:10:27.576Z,16.92
2017-06-24T02:10:56.077Z,16.84
2017-06-24T02:11:24.670Z,16.92
2017-06-24T02:11:53.265Z,16.95
2017-06-24T02:12:21.883Z,16.87
2017-06-24T02:12:50.382Z,16.91
2017-06-24T02:13:18.898Z,16.86
2017-06-24T02:13:47.486Z,16.92
2017-06-24T02:14:16.089Z,16.84
2017-06-24T02:14:44.606Z,16.89
2017-06-24T02:15:13.215Z,16.89
2017-06-24T02:15:41.800Z,16.89
2017-06-24T02:16:10.406Z,16.86
2017-06-24T02:16:39.025Z,16.84
2017-06-24T02:17:07.526Z,16.8
2017-06-24T02:17:36.128Z,16.83
2017-06-24T02:18:17.400Z,16.8
2017-06-24T02:18:45.498Z,16.82
2017-06-24T02:19:13.640Z,16.83
2017-06-24T02:19:41.781Z,16.79
2017-06-24T02:20:09.891Z,16.77
2017-06-24T02:20:38.050Z,16.82
2017-06-24T02:21:06.184Z,16.76
2017-06-24T02:21:34.237Z,16.77
2017-06-24T02:22:02.413Z,16.77
2017-06-24T02:22:30.495Z,16.73
2017-06-24T02:22:58.610Z,16.82
2017-06-24T02:23:26.759Z,16.72
2017-06-24T02:23:54.779Z,16.79
2017-06-24T02:24:22.827Z,16.77
2017-06-24T02:24:50.890Z,16.73
2017-06-24T02:25:19.030Z,16.73
2017-06-24T02:25:47.164Z,16.76
2017-06-24T02:26:15.329Z,16.68
2017-06-24T02:26:43.455Z,16.69
2017-06-24T02:27:11.576Z,16.72
2017-06-24T02:27:39.744Z,16.66
2017-06-24T02:28:07.863Z,16.69
2017-06-24T02:28:35.987Z,16.76
2017-06-24T02:29:04.141Z,16.69
2017-06-24T02:29:32.281Z,16.72
2017-06-24T02:30:00.320Z,16.74
2017-06-24T02:30:28.455Z,16.76
2017-06-24T02:30:56.615Z,16.79
2017-06-24T02:31:24.669Z,16.84
2017-06-24T02:31:52.701Z,16.79
2017-06-24T02:32:20.747Z,16.79
2017-06-24T02:32:48.872Z,16.79
2017-06-24T02:33:17.004Z,16.62
2017-06-24T02:33:45.145Z,16.83
2017-06-24T02:34:13.292Z,16.74
2017-06-24T02:34:41.400Z,16.76
2017-06-24T02:35:09.437Z,16.74
2017-06-24T02:35:37.392Z,16.74
2017-06-24T02:36:05.522Z,16.65
2017-06-24T02:36:33.556Z,16.74
2017-06-24T02:37:01.518Z,16.73
2017-06-24T02:37:29.665Z,16.69
2017-06-24T02:37:57.795Z,16.74
2017-06-24T02:38:25.905Z,16.72
2017-06-24T02:38:54.017Z,16.66
2017-06-24T02:39:22.072Z,16.69
2017-06-24T02:39:50.183Z,16.74
2017-06-24T02:40:18.286Z,16.74
2017-06-24T02:40:46.428Z,16.68
2017-06-24T02:41:14.548Z,16.72
2017-06-24T02:41:42.693Z,16.68
2017-06-24T02:42:10.742Z,16.77
2017-06-24T02:42:38.855Z,16.66
2017-06-24T02:43:06.989Z,16.68
2017-06-24T02:43:35.003Z,16.69
2017-06-24T02:44:02.936Z,16.68
2017-06-24T02:44:31.062Z,16.68
2017-06-24T02:44:59.210Z,16.69
2017-06-24T02:45:27.264Z,16.69
2017-06-24T02:45:55.407Z,16.66
2017-06-24T02:46:23.546Z,16.66
2017-06-24T02:46:51.598Z,16.64
2017-06-24T02:47:19.723Z,16.64
2017-06-24T02:47:47.772Z,16.68
2017-06-24T02:48:15.924Z,16.64
2017-06-24T02:48:43.967Z,16.55
2017-06-24T02:49:12.000Z,16.55
2017-06-24T02:49:40.050Z,16.57
2017-06-24T02:50:07.990Z,16.61
2017-06-24T02:50:36.067Z,16.57
2017-06-24T02:51:04.211Z,16.57
2017-06-24T02:51:32.155Z,16.61
2017-06-24T02:52:00.300Z,16.58
2017-06-24T02:52:28.405Z,16.61
2017-06-24T02:52:56.503Z,16.62
2017-06-24T02:53:24.635Z,16.64
2017-06-24T02:53:52.766Z,16.59
2017-06-24T02:54:20.900Z,16.51
2017-06-24T02:54:48.996Z,16.64
2017-06-24T02:55:17.069Z,16.64
2017-06-24T02:55:45.115Z,16.5
2017-06-24T02:56:13.154Z,16.55
2017-06-24T02:56:41.206Z,16.57
2017-06-24T02:57:09.147Z,16.54
2017-06-24T02:57:37.294Z,16.49
2017-06-24T02:58:05.346Z,16.59
2017-06-24T02:58:33.466Z,16.51
2017-06-24T02:59:01.493Z,16.47
2017-06-24T02:59:29.636Z,16.5
2017-06-24T02:59:57.671Z,16.5
2017-06-24T03:00:25.644Z,16.57
2017-06-24T03:00:53.804Z,16.51
2017-06-24T03:01:21.971Z,16.47
2017-06-24T03:01:50.099Z,16.49
2017-06-24T03:02:18.228Z,16.5
2017-06-24T03:02:46.338Z,16.5
2017-06-24T03:03:14.366Z,16.54
2017-06-24T03:03:42.524Z,16.49
2017-06-24T03:04:10.547Z,16.57
2017-06-24T03:04:38.675Z,16.49
2017-06-24T03:05:06.705Z,16.58
2017-06-24T03:05:34.854Z,16.58
2017-06-24T03:06:02.892Z,16.58
2017-06-24T03:06:31.045Z,16.62
2017-06-24T03:06:59.177Z,16.59
2017-06-24T03:07:27.349Z,16.58
2017-06-24T03:07:55.512Z,16.57
2017-06-24T03:08:23.664Z,16.58
2017-06-24T03:08:51.720Z,16.55
2017-06-24T03:09:19.882Z,16.58
2017-06-24T03:09:48.014Z,16.54
2017-06-24T03:10:16.143Z,16.54
2017-06-24T03:10:44.288Z,16.49
2017-06-24T03:11:12.419Z,16.57
2017-06-24T03:11:40.513Z,16.43
2017-06-24T03:12:08.652Z,16.44
2017-06-24T03:12:36.689Z,16.47
2017-06-24T03:13:04.745Z,16.47
2017-06-24T03:13:32.860Z,16.51
2017-06-24T03:14:01.012Z,16.43
2017-06-24T03:14:29.124Z,16.44
2017-06-24T03:14:57.274Z,16.44
2017-06-24T03:15:25.398Z,16.49
2017-06-24T03:15:53.522Z,16.44
2017-06-24T03:16:21.656Z,16.47
2017-06-24T03:16:49.694Z,16.46
2017-06-24T03:17:17.815Z,16.4
2017-06-24T03:17:45.938Z,16.44
2017-06-24T03:18:14.073Z,16.32
2017-06-24T03:18:42.197Z,16.32
2017-06-24T03:19:10.231Z,16.36
2017-06-24T03:19:38.368Z,16.29
2017-06-24T03:20:06.515Z,16.34
2017-06-24T03:20:34.567Z,16.37
2017-06-24T03:21:02.704Z,16.29
2017-06-24T03:21:30.821Z,16.31
2017-06-24T03:21:58.954Z,16.29
2017-06-24T03:22:27.128Z,16.32
2017-06-24T03:22:55.166Z,16.44
2017-06-24T03:23:23.309Z,16.34
2017-06-24T03:23:51.454Z,16.29
2017-06-24T03:24:19.604Z,16.44
2017-06-24T03:24:47.735Z,16.4
2017-06-24T03:25:15.867Z,16.41
2017-06-24T03:25:43.908Z,16.44
2017-06-24T03:26:12.039Z,16.31
2017-06-24T03:26:40.178Z,16.37
2017-06-24T03:27:08.310Z,16.32
2017-06-24T03:27:36.365Z,16.32
2017-06-24T03:28:04.503Z,16.32
2017-06-24T03:28:32.642Z,16.29
2017-06-24T03:29:00.775Z,16.31
2017-06-24T03:29:28.903Z,16.37
2017-06-24T03:29:57.043Z,16.31
2017-06-24T03:30:25.165Z,16.31
2017-06-24T03:30:53.216Z,16.31
2017-06-24T03:31:21.359Z,16.31
2017-06-24T03:31:49.465Z,16.36
2017-06-24T03:32:17.744Z,16.28
2017-06-24T03:32:45.891Z,16.36
2017-06-24T03:33:14.031Z,16.4
2017-06-24T03:33:42.165Z,16.36
2017-06-24T03:34:10.274Z,16.37
2017-06-24T03:34:38.304Z,16.29
2017-06-24T03:35:06.352Z,16.31
2017-06-24T03:35:34.521Z,16.31
2017-06-24T03:36:02.620Z,16.29
2017-06-24T03:36:30.766Z,16.39
2017-06-24T03:36:58.921Z,16.31
2017-06-24T03:37:26.974Z,16.4
2017-06-24T03:37:55.106Z,16.37
2017-06-24T03:38:23.231Z,16.32
2017-06-24T03:38:51.354Z,16.34
2017-06-24T03:39:19.500Z,16.31
2017-06-24T03:39:47.360Z,16.28
2017-06-24T03:40:15.416Z,16.31
2017-06-24T03:40:43.545Z,16.28
2017-06-24T03:41:11.693Z,16.26
2017-06-24T03:41:39.810Z,16.29
2017-06-24T03:42:07.952Z,16.25
2017-06-24T03:42:36.090Z,16.29
2017-06-24T03:43:04.211Z,16.26
2017-06-24T03:43:32.326Z,16.25
2017-06-24T03:44:00.459Z,16.29
2017-06-24T03:44:28.584Z,16.21
2017-06-24T03:44:56.703Z,16.32
2017-06-24T03:45:24.744Z,16.18
2017-06-24T03:45:52.779Z,16.36
2017-06-24T03:46:20.813Z,16.24
2017-06-24T03:46:48.837Z,16.18
2017-06-24T03:47:16.954Z,16.24
2017-06-24T03:47:44.901Z,16.21
2017-06-24T03:48:13.036Z,16.25
2017-06-24T03:48:41.182Z,16.18
2017-06-24T03:49:09.328Z,16.25
2017-06-24T03:49:37.456Z,16.28
2017-06-24T03:50:05.602Z,16.25
2017-06-24T03:50:33.725Z,16.22
2017-06-24T03:51:01.752Z,16.29
2017-06-24T03:51:29.890Z,16.24
2017-06-24T03:51:58.017Z,16.24
2017-06-24T03:52:25.976Z,16.26
2017-06-24T03:52:54.128Z,16.25
2017-06-24T03:53:22.167Z,16.29
2017-06-24T03:53:50.300Z,16.32
2017-06-24T03:54:18.431Z,16.32
2017-06-24T03:54:46.506Z,16.32
2017-06-24T03:55:14.456Z,16.34
2017-06-24T03:55:42.559Z,16.29
2017-06-24T03:56:10.689Z,16.31
2017-06-24T03:56:38.802Z,16.31
2017-06-24T03:57:06.914Z,16.32
2017-06-24T03:57:35.034Z,16.31
2017-06-24T03:58:03.071Z,16.31
2017-06-24T03:58:31.130Z,16.32
2017-06-24T03:58:59.175Z,16.29
2017-06-24T03:59:27.310Z,16.29
2017-06-24T03:59:55.350Z,16.28
2017-06-24T04:00:23.487Z,16.28
2017-06-24T04:00:51.598Z,16.32
2017-06-24T04:01:19.744Z,16.32
2017-06-24T04:01:47.883Z,16.21
2017-06-24T04:02:16.003Z,16.26
2017-06-24T04:02:44.123Z,16.25
2017-06-24T04:03:12.254Z,16.24
2017-06-24T04:03:40.388Z,16.24
2017-06-24T04:04:08.548Z,16.18
2017-06-24T04:04:36.682Z,16.24
2017-06-24T04:05:04.709Z,16.22
2017-06-24T04:05:32.829Z,16.29
2017-06-24T04:06:00.865Z,16.31
2017-06-24T04:06:28.903Z,16.25
2017-06-24T04:06:57.034Z,16.26
2017-06-24T04:07:25.075Z,16.16
2017-06-24T04:07:53.102Z,16.28
2017-06-24T04:08:21.253Z,16.26
2017-06-24T04:08:49.287Z,16.24
2017-06-24T04:09:17.426Z,16.24
2017-06-24T04:09:45.576Z,16.29
2017-06-24T04:10:13.699Z,16.28
2017-06-24T04:10:41.807Z,16.31
2017-06-24T04:11:09.922Z,16.25
2017-06-24T04:11:38.065Z,16.28
2017-06-24T04:12:06.199Z,16.32
2017-06-24T04:12:34.315Z,16.28
2017-06-24T04:13:02.459Z,16.29
2017-06-24T04:13:30.610Z,16.34
2017-06-24T04:13:58.736Z,16.28
2017-06-24T04:14:26.871Z,16.32
2017-06-24T04:14:55.007Z,16.29
2017-06-24T04:15:22.958Z,16.26
2017-06-24T04:15:51.110Z,16.22
2017-06-24T04:16:19.173Z,16.28
2017-06-24T04:16:47.195Z,16.26
2017-06-24T04:17:15.302Z,16.26
2017-06-24T04:17:43.243Z,16.22
2017-06-24T04:18:11.289Z,16.12
2017-06-24T04:18:39.349Z,16.21
2017-06-24T04:19:07.495Z,16.12
2017-06-24T04:19:35.627Z,16.24
2017-06-24T04:20:03.646Z,16.22
2017-06-24T04:20:31.771Z,16.25
2017-06-24T04:20:59.877Z,16.08
2017-06-24T04:21:27.985Z,16.16
2017-06-24T04:21:56.393Z,16.06
2017-06-24T04:22:24.535Z,16.08
2017-06-24T04:22:52.675Z,16.09
2017-06-24T04:23:20.814Z,16.13
2017-06-24T04:23:48.941Z,16.08
2017-06-24T04:24:16.964Z,16.1
2017-06-24T04:24:45.089Z,16.05
2017-06-24T04:25:13.130Z,16.09
2017-06-24T04:25:41.292Z,16.1
2017-06-24T04:26:09.460Z,16.12
2017-06-24T04:26:37.589Z,16.16
2017-06-24T04:27:05.723Z,16.12
2017-06-24T04:27:33.873Z,16.16
2017-06-24T04:28:02.003Z,16.17
2017-06-24T04:28:30.032Z,16.17
2017-06-24T04:28:58.163Z,16.18
2017-06-24T04:29:26.275Z,16.18
2017-06-24T04:29:54.417Z,16.25
2017-06-24T04:30:22.460Z,16.21
2017-06-24T04:30:50.589Z,16.18
2017-06-24T04:31:18.710Z,16.28
2017-06-24T04:31:46.824Z,16.16
2017-06-24T04:32:14.866Z,16.24
2017-06-24T04:32:42.991Z,16.21
2017-06-24T04:33:11.119Z,16.21
2017-06-24T04:33:39.146Z,16.18
2017-06-24T04:34:07.498Z,16.25
2017-06-24T04:34:35.682Z,16.17
2017-06-24T04:35:03.819Z,16.22
2017-06-24T04:35:31.966Z,16.26
2017-06-24T04:36:00.133Z,16.21
2017-06-24T04:36:28.252Z,16.16
2017-06-24T04:36:56.386Z,16.17
2017-06-24T04:37:24.416Z,16.16
2017-06-24T04:37:52.544Z,16.18
2017-06-24T04:38:20.574Z,16.24
2017-06-24T04:38:48.698Z,16.17
2017-06-24T04:39:16.726Z,16.22
2017-06-24T04:39:44.828Z,16.08
2017-06-24T04:40:12.844Z,16.16
2017-06-24T04:40:40.866Z,16.21
2017-06-24T04:41:08.976Z,16.09
2017-06-24T04:41:37.146Z,16.09
2017-06-24T04:42:05.202Z,16.25
2017-06-24T04:42:33.237Z,16.1
2017-06-24T04:43:01.356Z,16.16
2017-06-24T04:43:29.485Z,16.16
2017-06-24T04:43:57.603Z,16.08
2017-06-24T04:44:25.755Z,16.12
2017-06-24T04:44:53.891Z,16.05
2017-06-24T04:45:22.016Z,16.09
2017-06-24T04:45:50.130Z,16.12
2017-06-24T04:46:18.275Z,16.08
2017-06-24T04:46:46.323Z,16.03
2017-06-24T04:47:14.441Z,16
2017-06-24T04:47:42.509Z,15.99
2017-06-24T04:48:10.622Z,15.98
2017-06-24T04:48:38.770Z,16
2017-06-24T04:49:06.910Z,16.02
2017-06-24T04:49:35.007Z,16
2017-06-24T04:50:03.148Z,16
2017-06-24T04:50:31.130Z,15.96
2017-06-24T04:50:59.245Z,16.02
2017-06-24T04:51:27.371Z,16.03
2017-06-24T04:51:55.511Z,16.03
2017-06-24T04:52:23.671Z,16
2017-06-24T04:52:51.827Z,16.03
2017-06-24T04:53:19.975Z,16.05
2017-06-24T04:53:48.119Z,16.06
2017-06-24T04:54:16.237Z,15.99
2017-06-24T04:54:44.188Z,15.9
2017-06-24T04:55:12.300Z,15.92
2017-06-24T04:55:40.308Z,15.94
2017-06-24T04:56:08.444Z,15.9
2017-06-24T04:56:36.490Z,15.94
2017-06-24T04:57:04.629Z,15.9
2017-06-24T04:57:32.797Z,15.91
2017-06-24T04:58:00.941Z,15.84
2017-06-24T04:58:29.062Z,15.8
2017-06-24T04:58:57.218Z,15.87
2017-06-24T04:59:25.341Z,15.84
2017-06-24T04:59:53.451Z,15.76
2017-06-24T05:00:21.568Z,15.81
2017-06-24T05:00:49.719Z,15.81
2017-06-24T05:01:17.858Z,15.72
2017-06-24T05:01:45.910Z,15.75
2017-06-24T05:02:13.963Z,15.73
2017-06-24T05:02:42.108Z,15.75
2017-06-24T05:03:10.226Z,15.75
2017-06-24T05:03:38.353Z,15.75
2017-06-24T05:04:06.506Z,15.78
2017-06-24T05:04:34.643Z,15.76
2017-06-24T05:05:02.780Z,15.73
2017-06-24T05:05:30.819Z,15.69
2017-06-24T05:05:58.867Z,15.75
2017-06-24T05:06:27.002Z,15.76
2017-06-24T05:06:55.134Z,15.73
2017-06-24T05:07:23.264Z,15.75
2017-06-24T05:07:51.299Z,15.8
2017-06-24T05:08:19.414Z,15.75
2017-06-24T05:08:47.444Z,15.81
2017-06-24T05:09:15.571Z,15.75
2017-06-24T05:09:43.689Z,15.7
2017-06-24T05:10:11.740Z,15.73
2017-06-24T05:10:39.777Z,15.87
2017-06-24T05:11:07.809Z,15.87
2017-06-24T05:11:35.932Z,15.75
2017-06-24T05:12:04.083Z,15.85
2017-06-24T05:12:32.193Z,15.84
2017-06-24T05:13:00.224Z,15.83
2017-06-24T05:13:28.344Z,15.91
2017-06-24T05:13:56.390Z,15.84
2017-06-24T05:14:24.543Z,15.83
2017-06-24T05:14:52.591Z,15.81
2017-06-24T05:15:20.706Z,15.78
2017-06-24T05:15:48.869Z,15.81
2017-06-24T05:16:17.021Z,15.81
2017-06-24T05:16:45.137Z,15.85
2017-06-24T05:17:13.186Z,15.78
2017-06-24T05:17:41.302Z,15.85
2017-06-24T05:18:09.426Z,15.84
2017-06-24T05:18:37.536Z,15.85
2017-06-24T05:19:05.558Z,15.83
2017-06-24T05:19:33.697Z,15.8
2017-06-24T05:20:01.747Z,15.85
2017-06-24T05:20:29.769Z,15.81
2017-06-24T05:20:57.829Z,15.81
2017-06-24T05:21:25.853Z,15.85
2017-06-24T05:21:53.999Z,15.76
2017-06-24T05:22:22.140Z,15.83
2017-06-24T05:22:50.162Z,15.84
2017-06-24T05:23:18.310Z,15.8
2017-06-24T05:23:46.480Z,15.84
2017-06-24T05:24:14.481Z,15.75
2017-06-24T05:24:42.607Z,15.83
2017-06-24T05:25:10.751Z,15.81
2017-06-24T05:25:38.701Z,15.84
2017-06-24T05:26:06.829Z,15.76
2017-06-24T05:26:35.170Z,15.81
2017-06-24T05:27:03.198Z,15.72
2017-06-24T05:27:31.331Z,15.75
2017-06-24T05:27:59.355Z,15.8
2017-06-24T05:28:27.378Z,15.76
2017-06-24T05:28:55.409Z,15.78
2017-06-24T05:29:23.500Z,15.67
2017-06-24T05:29:51.620Z,15.72
2017-06-24T05:30:19.650Z,15.72
2017-06-24T05:30:47.771Z,15.63
2017-06-24T05:31:15.890Z,15.67
2017-06-24T05:31:44.013Z,15.63
2017-06-24T05:32:12.048Z,15.59
2017-06-24T05:32:40.182Z,15.57
2017-06-24T05:33:08.329Z,15.55
2017-06-24T05:33:36.388Z,15.55
2017-06-24T05:34:04.514Z,15.54
2017-06-24T05:34:32.537Z,15.54
2017-06-24T05:35:00.593Z,15.57
2017-06-24T05:35:28.731Z,15.54
2017-06-24T05:35:56.772Z,15.54
2017-06-24T05:36:24.914Z,15.55
2017-06-24T05:36:53.020Z,15.55
2017-06-24T05:37:21.175Z,15.55
2017-06-24T05:37:49.220Z,15.57
2017-06-24T05:38:17.364Z,15.57
2017-06-24T05:38:45.382Z,15.5
2017-06-24T05:39:13.419Z,15.59
2017-06-24T05:39:41.560Z,15.57
2017-06-24T05:40:09.702Z,15.54
2017-06-24T05:40:37.815Z,15.57
2017-06-24T05:41:05.970Z,15.52
2017-06-24T05:41:34.124Z,15.54
2017-06-24T05:42:02.177Z,15.54
2017-06-24T05:42:30.131Z,15.55
2017-06-24T05:42:58.165Z,15.57
2017-06-24T05:43:26.222Z,15.55
2017-06-24T05:43:54.341Z,15.55
2017-06-24T05:44:22.473Z,15.54
2017-06-24T05:44:50.521Z,15.59
2017-06-24T05:45:18.651Z,15.66
2017-06-24T05:45:46.797Z,15.57
2017-06-24T05:46:14.827Z,15.51
2017-06-24T05:46:42.777Z,15.57
2017-06-24T05:47:10.923Z,15.59
2017-06-24T05:47:39.062Z,15.52
2017-06-24T05:48:07.115Z,15.51
2017-06-24T05:48:35.268Z,15.6
2017-06-24T05:49:03.303Z,15.55
2017-06-24T05:49:31.448Z,15.55
2017-06-24T05:49:59.610Z,15.54
2017-06-24T05:50:27.741Z,15.6
2017-06-24T05:50:55.857Z,15.55
2017-06-24T05:51:24.007Z,15.52
2017-06-24T05:51:52.133Z,15.57
2017-06-24T05:52:20.139Z,15.55
2017-06-24T05:52:48.270Z,15.6
2017-06-24T05:53:16.226Z,15.54
2017-06-24T05:53:44.348Z,15.59
2017-06-24T05:54:12.494Z,15.54
2017-06-24T05:54:40.625Z,15.57
2017-06-24T05:55:08.757Z,15.54
2017-06-24T05:55:36.909Z,15.51
2017-06-24T05:56:05.042Z,15.57
2017-06-24T05:56:33.189Z,15.59
2017-06-24T05:57:01.234Z,15.57
2017-06-24T05:57:29.256Z,15.55
2017-06-24T05:57:57.406Z,15.52
2017-06-24T05:58:25.559Z,15.57
2017-06-24T05:58:53.682Z,15.54
2017-06-24T05:59:21.822Z,15.59
2017-06-24T05:59:49.961Z,15.54
2017-06-24T06:00:17.901Z,15.57
2017-06-24T06:00:46.057Z,15.57
2017-06-24T06:01:14.113Z,15.59
2017-06-24T06:01:42.240Z,15.57
2017-06-24T06:02:10.290Z,15.54
2017-06-24T06:02:38.441Z,15.54
2017-06-24T06:03:06.578Z,15.6
2017-06-24T06:03:34.737Z,15.55
2017-06-24T06:04:02.860Z,15.59
2017-06-24T06:04:30.906Z,15.55
2017-06-24T06:04:58.919Z,15.54
2017-06-24T06:05:27.062Z,15.55